Time;durP1;ratioP1;P1;durP2;ratioP2;P2;SDS_P1;SDS_P2;PMS_P1;PMS_P2;Temp;Humidity;BMP_temperature;BMP_pressure;BME280_temperature;BME280_humidity;BME280_pressure;Samples;Min_cycle;Max_cycle;Signal;HPM_P1;HPM_P2
2021/11/10 00:01:38;;;;;;;19.52;8.77;;;7.80;74.50;;;;;;5051541;28;20054;-77
2021/11/10 00:04:04;;;;;;;18.10;8.32;;;7.80;74.40;;;;;;5050415;28;20294;-77
2021/11/10 00:06:30;;;;;;;13.82;7.43;;;7.80;74.40;;;;;;5069435;28;20029;-76
2021/11/10 00:08:56;;;;;;;17.75;8.82;;;7.70;74.40;;;;;;5069201;28;20025;-77
2021/11/10 00:11:22;;;;;;;14.52;8.15;;;7.70;74.40;;;;;;5067830;28;20131;-77
2021/11/10 00:13:47;;;;;;;12.57;8.25;;;7.70;74.40;;;;;;5068819;28;20035;-77
2021/11/10 00:16:13;;;;;;;14.70;7.85;;;7.60;74.30;;;;;;5069110;28;20523;-76
2021/11/10 00:18:39;;;;;;;13.82;8.35;;;7.60;74.40;;;;;;5069237;28;20020;-73
2021/11/10 00:21:05;;;;;;;18.25;8.82;;;7.60;74.40;;;;;;5050811;28;20021;-76
2021/11/10 00:23:32;;;;;;;15.07;8.27;;;7.60;74.50;;;;;;5069022;28;20506;-76
2021/11/10 00:25:58;;;;;;;17.77;8.43;;;7.50;74.50;;;;;;5066540;28;20140;-76
2021/11/10 00:28:24;;;;;;;16.05;7.75;;;7.50;74.70;;;;;;5079566;28;20554;-76
2021/11/10 00:30:49;;;;;;;14.60;8.05;;;7.50;74.50;;;;;;5077089;28;20074;-76
2021/11/10 00:33:15;;;;;;;17.80;8.57;;;7.50;74.80;;;;;;5067035;28;20048;-75
2021/11/10 00:35:40;;;;;;;15.45;8.55;;;7.40;74.80;;;;;;5067657;28;20116;-76
2021/11/10 00:38:06;;;;;;;13.73;8.00;;;7.40;74.80;;;;;;5073738;28;20025;-77
2021/11/10 00:40:32;;;;;;;17.55;8.30;;;7.40;74.80;;;;;;5089065;28;20059;-77
2021/11/10 00:42:58;;;;;;;12.93;7.88;;;7.40;74.70;;;;;;5073737;28;20038;-72
2021/11/10 00:45:23;;;;;;;18.38;9.25;;;7.40;74.70;;;;;;5083294;28;20468;-75
2021/11/10 00:47:49;;;;;;;17.70;9.27;;;7.40;74.70;;;;;;5071111;28;20351;-76
2021/11/10 00:50:15;;;;;;;13.07;7.95;;;7.30;74.70;;;;;;5069977;28;20081;-76
2021/11/10 00:52:41;;;;;;;19.20;8.68;;;7.30;74.70;;;;;;5072213;28;20437;-76
2021/11/10 00:55:07;;;;;;;13.77;8.50;;;7.30;75.00;;;;;;5070505;28;20028;-73
2021/11/10 00:57:33;;;;;;;15.38;8.52;;;7.30;75.10;;;;;;5072021;28;20086;-73
2021/11/10 00:59:59;;;;;;;17.50;8.48;;;7.20;75.10;;;;;;5071988;28;20419;-73
2021/11/10 01:02:25;;;;;;;15.98;8.82;;;7.20;75.10;;;;;;5085651;28;20272;-73
2021/11/10 01:04:51;;;;;;;15.35;8.50;;;7.20;75.60;;;;;;5085105;28;20584;-73
2021/11/10 01:07:18;;;;;;;16.98;8.63;;;7.20;75.00;;;;;;5070829;28;20073;-73
2021/11/10 01:09:47;;;;;;;14.00;8.18;;;7.20;74.90;;;;;;5089592;28;20032;-73
2021/11/10 01:12:13;;;;;;;12.98;8.30;;;7.10;75.00;;;;;;5091538;28;20042;-73
2021/11/10 01:14:41;;;;;;;16.77;8.38;;;7.10;75.00;;;;;;5089457;28;20028;-72
2021/11/10 01:17:08;;;;;;;15.30;8.60;;;7.10;75.10;;;;;;5092120;28;20023;-73
2021/11/10 01:19:36;;;;;;;23.75;8.90;;;7.10;75.10;;;;;;5087534;28;20032;-73
2021/11/10 01:22:03;;;;;;;14.80;8.57;;;7.10;75.20;;;;;;5076749;28;20024;-72
2021/11/10 01:24:28;;;;;;;13.43;8.35;;;7.00;75.10;;;;;;5076952;28;20028;-75
2021/11/10 01:26:54;;;;;;;17.65;8.48;;;7.00;75.00;;;;;;5071878;28;20028;-76
2021/11/10 01:29:22;;;;;;;14.43;8.13;;;7.00;75.00;;;;;;5071458;28;20494;-76
2021/11/10 01:31:48;;;;;;;14.15;7.68;;;7.00;75.10;;;;;;5073814;28;20087;-76
2021/11/10 01:34:14;;;;;;;16.50;8.63;;;7.00;75.00;;;;;;5069700;28;20452;-76
2021/11/10 01:36:40;;;;;;;21.33;9.45;;;6.90;75.10;;;;;;5066777;28;20113;-73
2021/11/10 01:39:07;;;;;;;16.52;8.55;;;6.90;75.00;;;;;;5090965;28;20390;-73
2021/11/10 01:41:46;;;;;;;15.40;8.63;;;6.90;75.20;;;;;;5084853;28;20028;-72
2021/11/10 01:44:25;;;;;;;13.82;8.57;;;6.90;75.10;;;;;;5086217;28;20112;-73
2021/11/10 01:46:54;;;;;;;19.23;7.90;;;6.90;75.10;;;;;;5070387;28;20475;-73
2021/11/10 01:49:19;;;;;;;15.80;7.95;;;6.80;74.90;;;;;;5085617;28;20020;-77
2021/11/10 01:51:49;;;;;;;13.27;8.45;;;6.80;74.90;;;;;;5073647;28;20046;-73
2021/11/10 01:54:16;;;;;;;15.70;8.27;;;6.80;75.00;;;;;;5082782;28;20029;-77
2021/11/10 01:56:43;;;;;;;17.08;8.70;;;6.80;75.00;;;;;;5071644;28;20052;-75
2021/11/10 01:59:10;;;;;;;14.57;8.70;;;6.70;75.10;;;;;;5070671;28;20372;-76
2021/11/10 02:01:43;;;;;;;12.68;7.72;;;6.80;75.20;;;;;;5082995;28;20032;-73
2021/11/10 02:04:10;;;;;;;16.45;8.18;;;6.70;75.10;;;;;;5078034;28;20532;-73
2021/11/10 02:06:36;;;;;;;17.33;9.35;;;6.70;75.20;;;;;;5073394;28;20119;-76
2021/11/10 02:09:03;;;;;;;14.98;8.23;;;6.60;75.30;;;;;;5079249;28;20123;-72
2021/11/10 02:11:29;;;;;;;14.02;8.60;;;6.60;75.40;;;;;;5059153;28;20035;-73
2021/11/10 02:13:55;;;;;;;14.90;8.20;;;6.60;75.40;;;;;;5082182;28;20024;-72
2021/11/10 02:16:21;;;;;;;14.23;7.90;;;6.60;75.40;;;;;;5054909;28;20059;-73
2021/11/10 02:18:46;;;;;;;16.27;8.45;;;6.60;75.30;;;;;;5048845;28;20025;-73
2021/11/10 02:21:14;;;;;;;13.95;8.85;;;6.60;75.40;;;;;;5069386;28;20044;-72
2021/11/10 02:23:40;;;;;;;16.45;9.13;;;6.50;75.50;;;;;;5070513;28;20102;-72
2021/11/10 02:26:06;;;;;;;11.88;7.78;;;6.50;75.50;;;;;;5070509;28;20036;-73
2021/11/10 02:28:35;;;;;;;14.05;8.38;;;6.50;75.40;;;;;;5069409;28;20049;-76
2021/11/10 02:31:01;;;;;;;15.70;8.82;;;6.50;75.40;;;;;;5074379;28;20033;-76
2021/11/10 02:33:28;;;;;;;14.88;8.55;;;6.50;75.40;;;;;;5070908;28;20076;-77
2021/11/10 02:36:06;;;;;;;14.57;8.05;;;6.40;75.40;;;;;;5068820;28;20495;-77
2021/11/10 02:38:33;;;;;;;14.05;8.05;;;6.40;75.30;;;;;;5070414;28;20027;-74
2021/11/10 02:41:00;;;;;;;15.30;8.43;;;6.40;75.30;;;;;;5069134;28;20121;-73
2021/11/10 02:43:26;;;;;;;14.38;8.75;;;6.40;75.40;;;;;;5069807;28;20035;-73
2021/11/10 02:45:52;;;;;;;14.38;9.00;;;6.40;75.60;;;;;;5069054;28;20127;-72
2021/11/10 02:48:18;;;;;;;15.13;8.13;;;6.40;75.60;;;;;;5087205;28;20024;-72
2021/11/10 02:50:44;;;;;;;13.57;8.88;;;6.30;75.50;;;;;;5071800;28;20127;-76
2021/11/10 02:53:11;;;;;;;16.45;8.50;;;6.30;75.70;;;;;;5087804;28;20032;-78
2021/11/10 02:55:36;;;;;;;15.02;8.90;;;6.30;75.70;;;;;;5089793;28;20020;-76
2021/11/10 02:58:02;;;;;;;14.23;8.88;;;6.30;75.70;;;;;;5054829;28;20023;-76
2021/11/10 03:00:29;;;;;;;14.15;8.27;;;6.30;75.80;;;;;;5090270;28;20413;-76
2021/11/10 03:02:55;;;;;;;14.10;9.00;;;6.30;75.70;;;;;;5087777;28;20040;-76
2021/11/10 03:05:25;;;;;;;14.13;8.90;;;6.20;75.60;;;;;;5089484;28;20043;-76
2021/11/10 03:07:51;;;;;;;14.43;8.85;;;6.20;75.70;;;;;;5073329;28;20039;-72
2021/11/10 03:10:17;;;;;;;16.35;8.52;;;6.20;75.80;;;;;;5069979;28;20138;-72
2021/11/10 03:12:44;;;;;;;14.93;8.45;;;6.20;75.90;;;;;;5069862;28;20059;-73
2021/11/10 03:15:11;;;;;;;14.02;8.48;;;6.20;75.80;;;;;;5070343;28;20031;-76
2021/11/10 03:17:37;;;;;;;12.18;8.30;;;6.10;75.80;;;;;;5071707;28;20107;-76
2021/11/10 03:20:08;;;;;;;18.27;8.90;;;6.10;75.90;;;;;;5071109;28;20111;-72
2021/11/10 03:22:34;;;;;;;15.15;9.27;;;6.10;75.90;;;;;;5069907;28;20323;-72
2021/11/10 03:25:00;;;;;;;13.23;9.00;;;6.10;76.00;;;;;;5073416;28;20043;-72
2021/11/10 03:27:27;;;;;;;11.52;8.43;;;6.10;76.00;;;;;;5069784;28;20149;-73
2021/11/10 03:29:53;;;;;;;13.32;8.48;;;6.10;76.00;;;;;;5068768;28;20031;-72
2021/11/10 03:32:21;;;;;;;16.50;9.27;;;6.10;76.00;;;;;;5069465;28;20044;-73
2021/11/10 03:34:48;;;;;;;15.43;9.25;;;6.10;76.10;;;;;;5068522;28;20029;-72
2021/11/10 03:37:15;;;;;;;14.32;8.60;;;6.00;76.10;;;;;;5071305;28;20467;-73
2021/11/10 03:39:41;;;;;;;14.25;9.25;;;6.00;76.00;;;;;;5089780;28;20031;-76
2021/11/10 03:42:07;;;;;;;12.45;8.52;;;6.00;76.00;;;;;;5088074;28;20032;-76
2021/11/10 03:44:33;;;;;;;13.80;9.02;;;6.00;76.00;;;;;;5060677;28;20470;-76
2021/11/10 03:46:59;;;;;;;14.77;8.70;;;6.00;76.20;;;;;;5071251;28;20032;-72
2021/11/10 03:49:25;;;;;;;13.05;8.35;;;6.00;76.20;;;;;;5067638;28;20064;-72
2021/11/10 03:51:54;;;;;;;17.95;9.05;;;6.00;76.20;;;;;;5068241;28;20395;-77
2021/11/10 03:54:21;;;;;;;14.15;8.77;;;5.90;76.00;;;;;;5067074;28;20068;-73
2021/11/10 03:56:47;;;;;;;14.60;9.02;;;5.90;76.10;;;;;;5071911;28;20017;-73
2021/11/10 03:59:13;;;;;;;14.05;9.65;;;5.90;76.70;;;;;;5069556;28;20099;-73
2021/11/10 04:01:39;;;;;;;19.55;10.05;;;5.90;76.00;;;;;;5067716;28;20024;-73
2021/11/10 04:04:05;;;;;;;12.63;8.80;;;5.90;76.40;;;;;;5063460;28;20033;-72
2021/11/10 04:06:32;;;;;;;14.45;7.70;;;5.90;76.50;;;;;;5082255;28;20479;-73
2021/11/10 04:08:58;;;;;;;18.38;9.75;;;5.80;76.50;;;;;;5087262;28;20028;-73
2021/11/10 04:11:24;;;;;;;16.17;9.60;;;5.80;76.50;;;;;;5075217;28;20025;-73
2021/11/10 04:13:52;;;;;;;18.95;9.32;;;5.80;76.50;;;;;;5067504;28;20056;-73
2021/11/10 04:16:22;;;;;;;18.05;9.85;;;5.80;76.50;;;;;;5072128;28;20557;-73
2021/11/10 04:18:53;;;;;;;17.95;9.45;;;5.70;76.50;;;;;;5072635;28;20103;-77
2021/11/10 04:21:20;;;;;;;14.63;9.02;;;5.70;76.60;;;;;;5085442;28;20033;-76
2021/11/10 04:23:47;;;;;;;18.60;8.85;;;5.70;76.70;;;;;;5084608;28;20032;-77
2021/11/10 04:26:13;;;;;;;13.30;8.60;;;5.70;76.70;;;;;;5077054;28;20545;-77
2021/11/10 04:28:39;;;;;;;13.38;8.82;;;5.70;76.70;;;;;;5073160;28;20020;-73
2021/11/10 04:31:05;;;;;;;13.45;9.23;;;5.70;76.70;;;;;;5088701;28;20439;-73
2021/11/10 04:33:31;;;;;;;19.63;9.32;;;5.60;76.80;;;;;;5091171;28;20079;-73
2021/11/10 04:35:57;;;;;;;16.92;9.18;;;5.60;76.60;;;;;;5089732;28;20029;-77
2021/11/10 04:38:22;;;;;;;16.10;9.95;;;5.60;76.70;;;;;;5091829;28;20479;-77
2021/11/10 04:40:48;;;;;;;17.13;9.55;;;5.60;76.70;;;;;;5057555;28;20032;-73
2021/11/10 04:43:14;;;;;;;15.90;9.43;;;5.60;76.80;;;;;;5072567;28;20036;-73
2021/11/10 04:45:40;;;;;;;16.13;9.57;;;5.60;76.80;;;;;;5076637;28;20060;-73
2021/11/10 04:48:07;;;;;;;15.27;9.02;;;5.60;76.80;;;;;;5062828;28;20081;-73
2021/11/10 04:50:33;;;;;;;13.90;8.63;;;5.50;76.70;;;;;;5076684;28;20028;-73
2021/11/10 04:52:59;;;;;;;14.27;9.13;;;5.50;76.70;;;;;;5091364;28;20020;-73
2021/11/10 04:55:26;;;;;;;15.35;8.10;;;5.50;76.80;;;;;;5079192;28;20032;-73
2021/11/10 04:57:52;;;;;;;14.43;8.60;;;5.50;76.70;;;;;;5080048;28;20020;-77
2021/11/10 05:00:18;;;;;;;12.45;8.10;;;5.50;76.80;;;;;;5092411;28;20024;-74
2021/11/10 05:02:43;;;;;;;14.35;8.02;;;5.50;76.70;;;;;;5075400;28;20069;-74
2021/11/10 05:05:09;;;;;;;14.90;8.80;;;5.50;76.70;;;;;;5069611;28;20463;-77
2021/11/10 05:07:35;;;;;;;17.75;9.00;;;5.50;76.70;;;;;;5071864;28;20039;-77
2021/11/10 05:10:04;;;;;;;12.73;9.20;;;5.40;76.70;;;;;;5071977;28;20101;-77
2021/11/10 05:12:30;;;;;;;18.73;9.23;;;5.40;77.40;;;;;;5050812;28;20484;-78
2021/11/10 05:14:56;;;;;;;16.55;9.45;;;5.40;76.70;;;;;;5051519;28;20021;-74
2021/11/10 05:17:26;;;;;;;16.30;8.88;;;5.40;76.80;;;;;;5085703;28;20043;-74
2021/11/10 05:19:52;;;;;;;12.75;8.85;;;5.40;76.80;;;;;;5087095;28;20407;-77
2021/11/10 05:22:18;;;;;;;15.00;9.15;;;5.30;76.80;;;;;;5092058;28;20020;-77
2021/11/10 05:24:44;;;;;;;14.27;8.55;;;5.30;76.90;;;;;;5073125;28;20036;-73
2021/11/10 05:27:10;;;;;;;16.45;9.35;;;5.30;76.80;;;;;;5073963;28;20043;-77
2021/11/10 05:29:36;;;;;;;13.38;9.13;;;5.30;76.80;;;;;;5083517;28;20036;-77
2021/11/10 05:32:02;;;;;;;16.67;9.30;;;5.30;76.80;;;;;;5090557;28;20510;-74
2021/11/10 05:34:28;;;;;;;14.82;9.68;;;5.20;76.80;;;;;;5090338;28;20028;-78
2021/11/10 05:36:54;;;;;;;15.48;9.32;;;5.30;77.00;;;;;;5090529;28;20051;-77
2021/11/10 05:39:20;;;;;;;14.18;9.18;;;5.30;76.90;;;;;;5088799;28;20067;-74
2021/11/10 05:41:47;;;;;;;14.55;9.40;;;5.30;77.00;;;;;;5078505;28;20076;-74
2021/11/10 05:44:14;;;;;;;15.18;9.13;;;5.30;77.10;;;;;;5088045;28;20036;-78
2021/11/10 05:46:41;;;;;;;13.85;8.82;;;5.20;77.10;;;;;;5090067;28;20028;-74
2021/11/10 05:49:07;;;;;;;13.00;9.10;;;5.20;77.00;;;;;;5081648;28;20033;-74
2021/11/10 05:51:33;;;;;;;12.95;8.95;;;5.20;77.00;;;;;;5076563;28;20032;-74
2021/11/10 05:53:59;;;;;;;13.93;8.60;;;5.20;77.10;;;;;;5075869;28;20471;-74
2021/11/10 05:56:27;;;;;;;14.43;9.18;;;5.20;77.00;;;;;;5090436;28;20081;-73
2021/11/10 05:58:57;;;;;;;18.00;9.73;;;5.20;76.90;;;;;;5078810;28;20032;-77
2021/11/10 06:01:24;;;;;;;15.15;8.88;;;5.10;77.10;;;;;;5069756;28;20020;-74
2021/11/10 06:03:51;;;;;;;12.93;9.60;;;5.10;77.20;;;;;;5069337;28;20396;-74
2021/11/10 06:06:17;;;;;;;13.18;9.23;;;5.10;77.20;;;;;;5069402;28;20032;-74
2021/11/10 06:08:42;;;;;;;13.35;9.40;;;5.10;77.20;;;;;;5079167;28;20520;-73
2021/11/10 06:11:10;;;;;;;14.32;9.30;;;5.10;77.20;;;;;;5090992;28;20059;-73
2021/11/10 06:13:36;;;;;;;14.15;9.18;;;5.10;77.10;;;;;;5066396;28;20123;-73
2021/11/10 06:16:03;;;;;;;15.63;9.02;;;5.10;77.10;;;;;;5069175;28;20085;-77
2021/11/10 06:18:29;;;;;;;15.10;8.98;;;5.00;77.00;;;;;;5076123;28;20035;-77
2021/11/10 06:20:59;;;;;;;14.10;8.95;;;5.00;77.10;;;;;;5089354;28;20028;-77
2021/11/10 06:23:25;;;;;;;15.15;9.77;;;5.00;77.10;;;;;;5086812;28;20554;-77
2021/11/10 06:25:51;;;;;;;13.85;9.50;;;5.00;77.00;;;;;;5070720;28;20036;-77
2021/11/10 06:28:17;;;;;;;14.85;9.48;;;5.00;77.10;;;;;;5070673;28;20392;-74
2021/11/10 06:30:42;;;;;;;14.60;9.35;;;5.00;77.10;;;;;;5090859;28;20028;-74
2021/11/10 06:33:08;;;;;;;15.27;9.45;;;5.00;77.20;;;;;;5038732;28;20053;-76
2021/11/10 06:35:34;;;;;;;19.67;9.75;;;5.00;77.20;;;;;;5067809;28;20356;-77
2021/11/10 06:38:00;;;;;;;17.15;10.57;;;5.00;77.30;;;;;;5063139;28;20132;-74
2021/11/10 06:40:26;;;;;;;18.42;9.73;;;4.90;77.30;;;;;;5072748;28;20039;-74
2021/11/10 06:42:52;;;;;;;12.88;9.05;;;4.90;77.40;;;;;;5080502;28;20475;-74
2021/11/10 06:45:19;;;;;;;15.85;9.80;;;4.90;77.40;;;;;;5079378;28;20066;-74
2021/11/10 06:47:44;;;;;;;16.13;9.48;;;4.90;77.30;;;;;;5082465;28;20028;-74
2021/11/10 06:50:11;;;;;;;17.80;10.13;;;4.90;77.40;;;;;;5068831;28;20039;-74
2021/11/10 06:52:37;;;;;;;16.25;10.43;;;4.90;77.50;;;;;;5068539;28;20552;-74
2021/11/10 06:55:06;;;;;;;16.42;9.23;;;4.90;77.60;;;;;;5050923;28;20024;-73
2021/11/10 06:57:32;;;;;;;17.85;9.93;;;4.90;77.70;;;;;;5069273;28;20494;-73
2021/11/10 06:59:59;;;;;;;13.55;10.18;;;4.90;77.70;;;;;;5068112;28;20024;-72
2021/11/10 07:02:25;;;;;;;16.38;10.20;;;4.90;77.70;;;;;;5069619;28;20107;-73
2021/11/10 07:04:50;;;;;;;15.60;9.90;;;4.90;78.00;;;;;;5067591;28;20032;-73
2021/11/10 07:07:16;;;;;;;14.00;9.65;;;4.90;78.10;;;;;;5070296;28;20244;-76
2021/11/10 07:09:42;;;;;;;15.35;10.25;;;4.90;78.20;;;;;;5069731;28;20052;-76
2021/11/10 07:12:08;;;;;;;16.17;9.48;;;4.90;78.30;;;;;;5066844;28;20059;-76
2021/11/10 07:14:34;;;;;;;16.60;10.15;;;4.90;78.30;;;;;;5059536;28;20028;-77
2021/11/10 07:17:00;;;;;;;15.63;10.30;;;4.90;78.30;;;;;;5077368;28;20141;-76
2021/11/10 07:19:26;;;;;;;18.67;9.30;;;4.90;78.50;;;;;;5056073;28;20455;-77
2021/11/10 07:21:51;;;;;;;15.65;10.05;;;4.80;78.50;;;;;;5057386;28;20043;-77
2021/11/10 07:24:17;;;;;;;29.98;11.70;;;4.90;78.60;;;;;;5073241;28;20032;-77
2021/11/10 07:26:43;;;;;;;17.42;10.05;;;4.90;78.60;;;;;;5070676;28;20047;-77
2021/11/10 07:29:09;;;;;;;15.00;10.27;;;4.90;78.80;;;;;;5076521;28;20047;-77
2021/11/10 07:31:34;;;;;;;17.58;10.82;;;4.90;79.10;;;;;;5069812;28;20411;-80
2021/11/10 07:34:01;;;;;;;15.23;10.60;;;4.90;79.10;;;;;;5055798;28;20512;-80
2021/11/10 07:36:28;;;;;;;20.48;11.98;;;4.90;79.20;;;;;;5072075;28;20045;-80
2021/11/10 07:38:55;;;;;;;16.60;11.57;;;4.90;79.30;;;;;;5080420;28;20025;-79
2021/11/10 07:41:23;;;;;;;14.98;10.68;;;5.00;79.30;;;;;;5067790;28;20029;-70
2021/11/10 07:43:52;;;;;;;16.50;10.73;;;5.00;79.50;;;;;;5067619;28;20032;-81
2021/11/10 07:46:19;;;;;;;18.27;10.82;;;5.00;79.50;;;;;;5058449;28;20058;-70
2021/11/10 07:48:49;;;;;;;16.98;11.07;;;5.00;79.60;;;;;;5052503;28;20036;-71
2021/11/10 07:51:17;;;;;;;16.80;10.70;;;5.00;79.70;;;;;;5071811;28;20032;-81
2021/11/10 07:53:44;;;;;;;16.75;10.52;;;5.00;79.80;;;;;;5071369;28;20024;-81
2021/11/10 07:56:10;;;;;;;19.30;12.93;;;5.00;79.90;;;;;;5072459;28;20411;-81
2021/11/10 07:58:39;;;;;;;24.55;12.90;;;5.10;80.50;;;;;;5073190;28;20032;-80
2021/11/10 08:01:07;;;;;;;20.27;13.60;;;5.10;80.80;;;;;;5072153;28;20471;-81
2021/11/10 08:03:33;;;;;;;19.58;14.40;;;5.10;80.90;;;;;;5071776;28;20033;-81
2021/11/10 08:05:59;;;;;;;20.67;13.95;;;5.10;81.00;;;;;;5072035;28;20028;-80
2021/11/10 08:08:25;;;;;;;23.25;14.38;;;5.20;81.10;;;;;;5072383;28;20032;-81
2021/11/10 08:10:56;;;;;;;20.70;13.88;;;5.30;81.50;;;;;;5083652;28;20122;-81
2021/11/10 08:13:23;;;;;;;21.67;14.23;;;5.30;81.80;;;;;;5064077;28;20028;-82
2021/11/10 08:15:50;;;;;;;25.23;14.45;;;5.40;82.00;;;;;;5073106;28;20255;-81
2021/11/10 08:18:19;;;;;;;22.13;14.13;;;5.50;82.20;;;;;;5069561;28;20027;-81
2021/11/10 08:20:45;;;;;;;24.73;14.07;;;5.60;82.30;;;;;;5053280;28;20357;-81
2021/11/10 08:23:14;;;;;;;22.60;14.95;;;5.60;82.60;;;;;;5065296;28;20055;-71
2021/11/10 08:25:40;;;;;;;23.20;14.43;;;5.70;82.70;;;;;;5071820;28;20584;-71
2021/11/10 08:28:05;;;;;;;20.85;13.93;;;5.70;82.70;;;;;;5071530;28;20115;-70
2021/11/10 08:30:32;;;;;;;24.25;14.27;;;5.80;82.90;;;;;;5070814;28;20035;-71
2021/11/10 08:32:58;;;;;;;23.63;15.07;;;5.90;83.00;;;;;;5069279;28;20501;-71
2021/11/10 08:35:23;;;;;;;24.58;13.77;;;5.90;83.10;;;;;;5106541;27;20569;-71
2021/11/10 08:37:51;;;;;;;23.67;14.70;;;6.00;83.10;;;;;;5070417;28;20033;-71
2021/11/10 08:40:17;;;;;;;27.23;14.85;;;6.00;83.10;;;;;;5073903;28;20027;-71
2021/11/10 08:42:43;;;;;;;24.58;13.85;;;6.10;83.30;;;;;;5070133;28;20032;-71
2021/11/10 08:45:16;;;;;;;29.10;16.27;;;6.10;83.50;;;;;;5072441;28;20041;-80
2021/11/10 08:47:43;;;;;;;21.38;13.70;;;6.20;83.70;;;;;;5076197;28;20035;-82
2021/11/10 08:50:10;;;;;;;23.17;15.00;;;6.30;83.70;;;;;;5073616;28;20052;-82
2021/11/10 08:52:37;;;;;;;23.55;14.35;;;6.40;83.80;;;;;;5076252;28;20036;-82
2021/11/10 08:55:08;;;;;;;24.33;14.32;;;6.50;83.70;;;;;;5085317;28;20032;-82
2021/11/10 08:57:35;;;;;;;25.58;14.73;;;6.60;83.90;;;;;;5072620;28;20099;-82
2021/11/10 09:00:05;;;;;;;24.15;14.13;;;6.70;84.00;;;;;;5069025;28;20043;-82
2021/11/10 09:02:31;;;;;;;22.45;14.15;;;6.80;84.10;;;;;;5069357;28;20483;-82
2021/11/10 09:04:57;;;;;;;30.02;14.88;;;6.90;84.00;;;;;;5080346;28;20098;-82
2021/11/10 09:07:22;;;;;;;27.20;14.98;;;7.00;84.00;;;;;;5055823;28;20111;-82
2021/11/10 09:09:48;;;;;;;25.50;14.75;;;7.10;84.10;;;;;;5077816;28;20032;-81
2021/11/10 09:12:14;;;;;;;27.83;15.10;;;7.20;83.90;;;;;;5079076;28;20064;-81
2021/11/10 09:14:39;;;;;;;31.48;13.75;;;7.30;83.90;;;;;;5073281;28;20358;-69
2021/11/10 09:17:05;;;;;;;22.63;13.73;;;7.40;83.80;;;;;;5075585;28;20116;-70
2021/11/10 09:19:31;;;;;;;21.30;13.38;;;7.50;84.20;;;;;;5076392;28;20052;-71
2021/11/10 09:21:57;;;;;;;23.75;13.93;;;7.60;83.60;;;;;;5075285;28;20028;-70
2021/11/10 09:24:23;;;;;;;23.92;12.55;;;7.70;83.50;;;;;;5075167;28;20024;-80
2021/11/10 09:26:50;;;;;;;25.40;13.05;;;7.80;82.80;;;;;;5070916;28;20391;-81
2021/11/10 09:29:19;;;;;;;22.70;13.15;;;7.90;81.80;;;;;;5072365;28;20090;-81
2021/11/10 09:31:45;;;;;;;23.63;12.13;;;8.00;81.90;;;;;;5066994;28;20179;-80
2021/11/10 09:34:12;;;;;;;21.00;11.77;;;8.10;81.60;;;;;;5059303;28;20542;-79
2021/11/10 09:36:46;;;;;;;28.73;13.52;;;8.30;81.30;;;;;;5071627;28;20016;-81
2021/11/10 09:39:16;;;;;;;29.10;11.98;;;8.40;80.80;;;;;;5069371;28;20020;-80
2021/11/10 09:41:46;;;;;;;18.35;11.88;;;8.60;79.40;;;;;;5058249;28;20016;-70
2021/11/10 09:44:12;;;;;;;21.70;12.25;;;8.70;78.90;;;;;;5067255;28;20020;-80
2021/11/10 09:46:38;;;;;;;23.30;12.20;;;8.80;77.80;;;;;;5071834;28;20024;-80
2021/11/10 09:49:05;;;;;;;22.63;11.10;;;8.80;76.70;;;;;;5067340;28;20587;-81
2021/11/10 09:51:33;;;;;;;21.48;10.93;;;8.80;76.10;;;;;;5055545;28;20043;-80
2021/11/10 09:54:01;;;;;;;22.25;11.77;;;8.90;76.60;;;;;;5068186;28;20024;-82
2021/11/10 09:56:27;;;;;;;20.05;10.57;;;9.00;76.90;;;;;;5070497;28;20020;-72
2021/11/10 09:58:52;;;;;;;21.00;11.35;;;9.20;77.30;;;;;;5073945;28;20016;-72
2021/11/10 10:01:19;;;;;;;21.52;12.32;;;9.30;77.00;;;;;;5076673;28;20076;-82
2021/11/10 10:03:47;;;;;;;24.50;10.77;;;9.50;76.60;;;;;;5073568;28;20546;-81
2021/11/10 10:06:16;;;;;;;19.67;9.82;;;9.60;75.90;;;;;;5076295;28;20391;-70
2021/11/10 10:08:46;;;;;;;16.70;9.80;;;9.70;75.20;;;;;;5087012;28;20035;-71
2021/11/10 10:11:12;;;;;;;17.98;9.15;;;9.80;75.40;;;;;;5070177;28;20033;-81
2021/11/10 10:13:39;;;;;;;17.50;9.50;;;9.90;75.10;;;;;;5073802;28;20029;-80
2021/11/10 10:16:05;;;;;;;15.32;8.40;;;9.90;74.90;;;;;;5077497;28;20151;-80
2021/11/10 10:18:31;;;;;;;17.17;8.95;;;10.00;74.20;;;;;;5098392;28;20024;-80
2021/11/10 10:21:11;;;;;;;18.67;9.18;;;10.00;73.80;;;;;;5069681;28;20031;-80
2021/11/10 10:23:39;;;;;;;16.42;8.40;;;10.10;73.30;;;;;;5070310;28;20028;-81
2021/11/10 10:26:11;;;;;;;18.83;9.30;;;10.20;72.50;;;;;;5072923;28;20530;-80
2021/11/10 10:28:40;;;;;;;15.18;8.40;;;10.30;73.90;;;;;;5077246;28;20092;-79
2021/11/10 10:31:09;;;;;;;15.63;9.20;;;10.40;72.60;;;;;;5072801;28;20540;-80
2021/11/10 10:33:38;;;;;;;16.48;8.90;;;10.50;71.20;;;;;;5077677;28;20561;-80
2021/11/10 10:36:27;;;;;;;18.50;9.07;;;10.50;71.40;;;;;;5078040;28;20020;-81
2021/11/10 10:38:56;;;;;;;16.75;9.38;;;10.60;71.30;;;;;;5073377;28;20414;-79
2021/11/10 10:41:43;;;;;;;15.60;9.57;;;10.70;71.30;;;;;;5079757;28;20486;-79
2021/11/10 10:44:13;;;;;;;18.73;9.05;;;10.80;71.80;;;;;;5076870;28;20028;-77
2021/11/10 10:46:47;;;;;;;16.73;9.07;;;10.90;71.30;;;;;;5074253;28;20040;-80
2021/11/10 10:49:21;;;;;;;15.90;8.07;;;11.10;71.10;;;;;;5074954;28;20074;-80
2021/11/10 10:51:51;;;;;;;14.52;8.23;;;11.30;70.80;;;;;;5081613;28;20032;-80
2021/11/10 10:54:18;;;;;;;19.85;8.07;;;11.50;71.50;;;;;;5077148;28;20020;-80
2021/11/10 10:56:54;;;;;;;15.77;8.15;;;11.80;70.50;;;;;;5081301;28;20032;-80
2021/11/10 11:10:37;;;;;;;13.77;8.90;;;15.60;58.30;;;;;;5155925;27;20112;-80
2021/11/10 11:13:03;;;;;;;12.95;7.88;;;15.90;57.80;;;;;;5118728;27;20046;-80
2021/11/10 11:15:37;;;;;;;17.50;8.27;;;16.20;55.80;;;;;;5105006;28;20561;-79
2021/11/10 11:18:04;;;;;;;17.08;9.38;;;16.20;56.40;;;;;;5092875;28;20021;-78
2021/11/10 11:20:37;;;;;;;18.05;10.63;;;15.70;56.10;;;;;;5104136;27;20028;-80
2021/11/10 11:23:05;;;;;;;16.95;8.75;;;15.50;57.00;;;;;;5089739;28;21093;-80
2021/11/10 11:25:36;;;;;;;15.50;8.68;;;15.30;57.60;;;;;;5100655;28;20037;-79
2021/11/10 11:28:14;;;;;;;16.10;8.43;;;15.70;57.80;;;;;;5088091;28;20028;-79
2021/11/10 11:30:57;;;;;;;18.38;8.68;;;16.50;55.00;;;;;;5090610;28;20029;-78
2021/11/10 11:33:26;;;;;;;19.13;8.75;;;16.50;53.60;;;;;;5139465;27;20024;-79
2021/11/10 11:36:00;;;;;;;17.60;8.52;;;16.10;54.70;;;;;;5104999;28;20020;-79
2021/11/10 11:38:28;;;;;;;15.65;8.10;;;16.30;54.00;;;;;;5107057;28;20433;-79
2021/11/10 11:40:56;;;;;;;18.17;9.38;;;16.30;53.40;;;;;;5139879;27;20020;-79
2021/11/10 11:43:26;;;;;;;12.15;7.95;;;17.00;51.70;;;;;;5100811;28;20037;-79
2021/11/10 11:45:54;;;;;;;16.08;8.75;;;17.80;50.70;;;;;;5094476;28;20024;-73
2021/11/10 11:48:23;;;;;;;12.77;7.28;;;18.90;48.20;;;;;;5105337;28;20027;-78
2021/11/10 11:50:50;;;;;;;16.88;8.05;;;19.80;46.90;;;;;;5106551;28;20024;-79
2021/11/10 11:53:17;;;;;;;13.10;7.22;;;20.60;45.90;;;;;;5106535;28;20532;-80
2021/11/10 11:55:55;;;;;;;10.73;6.30;;;20.90;45.40;;;;;;5088748;28;20028;-79
2021/11/10 11:58:29;;;;;;;14.40;8.25;;;21.30;44.40;;;;;;5106799;28;20036;-80
2021/11/10 12:01:16;;;;;;;13.75;8.02;;;21.40;43.80;;;;;;5106320;28;20024;-79
2021/11/10 12:03:44;;;;;;;14.00;8.32;;;21.80;43.50;;;;;;5122334;27;20432;-79
2021/11/10 12:06:10;;;;;;;14.13;8.32;;;22.40;42.20;;;;;;5093473;28;20024;-79
2021/11/10 12:08:43;;;;;;;14.45;8.27;;;22.80;40.90;;;;;;5120301;27;20056;-71
2021/11/10 12:11:33;;;;;;;12.88;7.35;;;22.80;40.70;;;;;;5135415;27;20012;-79
2021/11/10 12:13:59;;;;;;;12.00;7.57;;;23.30;40.70;;;;;;5127358;27;20352;-79
2021/11/10 12:16:25;;;;;;;15.60;8.32;;;23.90;39.10;;;;;;5124692;27;20031;-79
2021/11/10 12:19:01;;;;;;;14.15;8.55;;;23.30;38.90;;;;;;5089728;28;20024;-79
2021/11/10 12:21:40;;;;;;;17.05;8.77;;;22.20;41.10;;;;;;5075193;28;20025;-79
2021/11/10 12:24:11;;;;;;;17.83;8.73;;;21.30;42.80;;;;;;5072940;28;20141;-79
2021/11/10 12:27:14;;;;;;;16.90;9.25;;;20.30;43.40;;;;;;5082005;28;20043;-78
2021/11/10 12:29:57;;;;;;;21.45;9.25;;;19.20;45.60;;;;;;5071567;28;20024;-79
2021/11/10 12:32:43;;;;;;;;;;;18.30;47.70;;;;;;5088673;28;20052;-78
2021/11/10 12:35:20;;;;;;;20.80;10.30;;;17.70;48.70;;;;;;5090246;28;19958;-78
2021/11/10 12:37:48;;;;;;;17.58;9.65;;;17.00;50.40;;;;;;5092463;28;20124;-77
2021/11/10 12:40:28;;;;;;;17.75;8.82;;;16.50;51.50;;;;;;5074486;28;20042;-70
2021/11/10 12:43:03;;;;;;;17.40;9.43;;;16.10;52.90;;;;;;5090368;28;20372;-72
2021/11/10 12:45:31;;;;;;;16.10;9.52;;;15.60;53.90;;;;;;5092155;28;20504;-70
2021/11/10 12:48:02;;;;;;;17.90;10.60;;;15.40;55.10;;;;;;5092176;28;20024;-70
2021/11/10 12:50:47;;;;;;;18.00;9.00;;;15.10;55.50;;;;;;5091516;28;20099;-70
2021/11/10 12:53:34;;;;;;;18.20;11.25;;;14.90;56.40;;;;;;5090499;28;20497;-71
2021/11/10 12:56:01;;;;;;;16.92;9.05;;;14.70;57.10;;;;;;5091989;28;20027;-71
2021/11/10 12:58:29;;;;;;;24.00;11.90;;;14.50;57.50;;;;;;5092414;28;20020;-71